Time;durP1;ratioP1;P1;durP2;ratioP2;P2;SDS_P1;SDS_P2;PMS_P1;PMS_P2;Temp;Humidity;BMP_temperature;BMP_pressure;BME280_temperature;BME280_humidity;BME280_pressure;Samples;Min_cycle;Max_cycle;Signal;HPM_P1;HPM_P2
2021/12/12 00:05:15;;;;;;;6.57;1.98;;;19.40;57.20;;;;;;6148857;22;91653;-63
2021/12/12 00:07:41;;;;;;;6.57;1.63;;;19.40;57.20;;;;;;6146857;22;92473;-62
2021/12/12 00:10:18;;;;;;;5.20;1.80;;;19.30;57.10;;;;;;6146855;22;92841;-64
2021/12/12 00:12:48;;;;;;;7.88;1.67;;;19.40;57.20;;;;;;6146304;22;93952;-64
2021/12/12 00:15:17;;;;;;;4.93;1.70;;;19.30;57.20;;;;;;6145677;22;93786;-63
2021/12/12 00:17:43;;;;;;;6.65;1.73;;;19.40;57.30;;;;;;6146697;22;92874;-62
2021/12/12 00:20:12;;;;;;;7.00;1.83;;;19.30;57.20;;;;;;6146305;22;92284;-62
2021/12/12 00:22:40;;;;;;;10.43;1.92;;;19.30;57.20;;;;;;6145004;22;96201;-62
2021/12/12 00:25:08;;;;;;;5.30;1.73;;;19.30;57.30;;;;;;6145044;22;93063;-64
2021/12/12 00:27:34;;;;;;;5.88;1.88;;;19.30;57.30;;;;;;6145446;22;92382;-60
2021/12/12 00:30:03;;;;;;;5.55;1.80;;;19.30;57.30;;;;;;6147045;22;92221;-63
2021/12/12 00:32:31;;;;;;;9.13;1.80;;;19.30;57.30;;;;;;6146070;22;93038;-63
2021/12/12 00:35:01;;;;;;;6.97;1.65;;;19.30;57.30;;;;;;6145817;22;92290;-59
2021/12/12 00:37:28;;;;;;;4.25;1.85;;;19.20;57.30;;;;;;6145821;22;93939;-63
2021/12/12 00:39:58;;;;;;;7.53;2.83;;;19.20;57.30;;;;;;6145584;22;92556;-63
2021/12/12 00:42:29;;;;;;;4.25;1.60;;;19.20;57.30;;;;;;6144906;22;92602;-60
2021/12/12 00:44:58;;;;;;;3.95;1.58;;;19.20;57.30;;;;;;6145039;22;93043;-63
2021/12/12 00:47:25;;;;;;;8.40;1.90;;;19.20;57.30;;;;;;6145777;22;92723;-63
2021/12/12 00:49:52;;;;;;;7.80;2.03;;;19.20;57.40;;;;;;6145306;22;92310;-63
2021/12/12 00:52:19;;;;;;;5.38;1.83;;;19.20;57.40;;;;;;6145045;22;92615;-62
2021/12/12 00:54:47;;;;;;;3.38;1.40;;;19.20;57.40;;;;;;6146096;22;92955;-63
2021/12/12 00:57:17;;;;;;;2.90;1.55;;;19.20;57.40;;;;;;6146748;22;92670;-61
2021/12/12 00:59:45;;;;;;;4.03;1.40;;;19.10;57.40;;;;;;6145723;22;92617;-62
2021/12/12 01:02:20;;;;;;;6.07;2.10;;;19.10;57.40;;;;;;6144219;22;93212;-60
2021/12/12 01:04:50;;;;;;;6.85;1.85;;;19.10;57.40;;;;;;6145311;22;94165;-62
2021/12/12 01:07:20;;;;;;;3.65;1.50;;;19.10;57.40;;;;;;6146807;22;92253;-62
2021/12/12 01:09:53;;;;;;;8.27;1.60;;;19.10;57.40;;;;;;6146147;22;92398;-62
2021/12/12 01:12:24;;;;;;;3.33;1.50;;;19.10;57.50;;;;;;6146229;22;92857;-62
2021/12/12 01:14:55;;;;;;;5.10;1.63;;;19.00;57.40;;;;;;6144343;22;92902;-62
2021/12/12 01:17:38;;;;;;;3.97;1.80;;;19.10;57.50;;;;;;6145668;22;92382;-63
2021/12/12 01:20:32;;;;;;;3.88;1.45;;;19.10;57.50;;;;;;6146331;22;92020;-62
2021/12/12 01:23:04;;;;;;;3.03;1.35;;;19.10;57.50;;;;;;6145112;22;93082;-62
2021/12/12 01:25:42;;;;;;;3.33;1.63;;;19.10;57.50;;;;;;6143111;22;94978;-61
2021/12/12 01:28:09;;;;;;;6.60;1.65;;;19.10;57.50;;;;;;6144151;22;93808;-61
2021/12/12 01:30:35;;;;;;;4.13;1.63;;;19.00;57.50;;;;;;6145053;22;93066;-63
2021/12/12 01:33:01;;;;;;;3.22;1.65;;;19.00;57.50;;;;;;6145557;22;93928;-62
2021/12/12 01:35:27;;;;;;;5.82;1.75;;;19.00;57.60;;;;;;6145159;22;92466;-60
2021/12/12 01:40:48;;;;;;;3.63;1.40;;;19.00;57.60;;;;;;6146597;22;92351;-62
2021/12/12 01:43:41;;;;;;;3.97;1.40;;;19.00;57.60;;;;;;6145761;22;93921;-61
2021/12/12 01:46:18;;;;;;;4.50;1.52;;;19.00;57.60;;;;;;6145368;22;92829;-60
2021/12/12 01:48:52;;;;;;;3.55;1.30;;;19.00;57.70;;;;;;6145803;22;92836;-62
2021/12/12 01:51:20;;;;;;;3.97;1.30;;;18.90;57.60;;;;;;6145564;22;92537;-61
2021/12/12 01:53:49;;;;;;;3.72;1.60;;;18.90;57.70;;;;;;6144095;22;97012;-62
2021/12/12 01:56:21;;;;;;;4.20;1.70;;;18.90;57.70;;;;;;6145807;22;94692;-61
2021/12/12 01:58:51;;;;;;;2.90;1.27;;;18.90;57.80;;;;;;6146583;22;92665;-62
2021/12/12 02:01:31;;;;;;;6.97;2.05;;;18.90;57.80;;;;;;6146004;22;92731;-60
2021/12/12 02:04:10;;;;;;;4.47;2.10;;;18.90;57.80;;;;;;6144366;22;93335;-61
2021/12/12 02:06:37;;;;;;;2.60;1.02;;;18.90;57.80;;;;;;6145596;22;92156;-61
2021/12/12 02:09:05;;;;;;;3.03;1.30;;;18.90;57.90;;;;;;6147018;22;92283;-62
2021/12/12 02:11:33;;;;;;;6.78;1.90;;;18.90;57.90;;;;;;6146246;22;91414;-61
2021/12/12 02:14:08;;;;;;;4.70;1.45;;;18.80;57.90;;;;;;6144972;22;94051;-60
2021/12/12 02:16:37;;;;;;;3.50;1.80;;;18.80;57.90;;;;;;6144430;22;95462;-62
2021/12/12 02:19:04;;;;;;;4.22;1.77;;;18.80;57.90;;;;;;6145127;22;93872;-60
2021/12/12 02:21:47;;;;;;;4.47;1.50;;;18.80;58.00;;;;;;6144946;22;92656;-61
2021/12/12 02:35:45;;;;;;;5.57;1.60;;;18.80;58.10;;;;;;6136030;22;92718;-61
2021/12/12 02:38:16;;;;;;;2.53;1.15;;;18.80;58.10;;;;;;6144195;22;92940;-61
2021/12/12 02:40:49;;;;;;;3.92;1.20;;;18.80;58.10;;;;;;6145283;22;92528;-61
2021/12/12 02:43:19;;;;;;;2.65;1.10;;;18.80;58.10;;;;;;6144780;22;92466;-62
2021/12/12 02:45:46;;;;;;;5.70;1.60;;;18.80;58.20;;;;;;6143935;22;93494;-60
2021/12/12 02:48:18;;;;;;;5.35;1.65;;;18.70;58.20;;;;;;6145043;22;93268;-60
2021/12/12 02:50:47;;;;;;;4.22;1.25;;;18.70;58.70;;;;;;6143798;22;92954;-61
2021/12/12 02:53:21;;;;;;;2.65;1.23;;;18.70;58.20;;;;;;6143572;22;92213;-65
2021/12/12 02:56:18;;;;;;;3.63;1.50;;;18.70;58.20;;;;;;6146071;22;92609;-61
2021/12/12 02:58:46;;;;;;;3.90;1.20;;;18.70;58.20;;;;;;6143337;22;92775;-62
2021/12/12 03:01:15;;;;;;;2.75;1.13;;;18.70;58.20;;;;;;6144373;22;92903;-62
2021/12/12 03:03:43;;;;;;;4.13;1.67;;;18.70;58.20;;;;;;6143384;22;91937;-62
2021/12/12 03:06:15;;;;;;;2.35;1.00;;;18.70;58.30;;;;;;6142800;22;92480;-61
2021/12/12 03:08:43;;;;;;;2.17;1.00;;;18.70;58.30;;;;;;6143589;22;93569;-61
2021/12/12 03:11:10;;;;;;;2.33;1.10;;;18.70;58.30;;;;;;6145369;22;93473;-60
2021/12/12 03:13:37;;;;;;;3.25;1.08;;;18.70;58.30;;;;;;6143010;22;92644;-61
2021/12/12 03:16:03;;;;;;;3.38;1.15;;;18.70;58.30;;;;;;6143863;22;96341;-61
2021/12/12 03:18:33;;;;;;;2.95;1.30;;;18.60;58.30;;;;;;6145136;22;93243;-62
2021/12/12 03:21:04;;;;;;;2.90;1.20;;;18.60;58.30;;;;;;6147460;22;92112;-62
2021/12/12 03:23:33;;;;;;;3.10;1.35;;;18.70;58.40;;;;;;6147209;22;92188;-61
2021/12/12 03:26:10;;;;;;;3.17;1.92;;;18.70;58.40;;;;;;6144478;22;93145;-61
2021/12/12 03:28:39;;;;;;;3.40;1.00;;;18.60;58.40;;;;;;6145221;22;93831;-61
2021/12/12 03:31:09;;;;;;;2.88;1.15;;;18.60;58.40;;;;;;6146404;22;92658;-62
2021/12/12 03:33:35;;;;;;;3.20;1.63;;;18.60;58.40;;;;;;6145113;22;92401;-61
2021/12/12 03:36:05;;;;;;;4.72;1.20;;;18.60;58.40;;;;;;6145331;22;93753;-60
2021/12/12 03:38:32;;;;;;;3.58;1.10;;;18.60;58.40;;;;;;6145826;22;93724;-60
2021/12/12 03:41:06;;;;;;;3.55;1.27;;;18.60;58.50;;;;;;6145546;22;92109;-60
2021/12/12 03:43:33;;;;;;;2.28;1.10;;;18.60;58.50;;;;;;6145961;22;93009;-61
2021/12/12 03:45:59;;;;;;;3.20;1.00;;;18.50;58.40;;;;;;6144828;22;93002;-61
2021/12/12 03:48:30;;;;;;;2.97;1.00;;;18.60;58.50;;;;;;6144501;22;94130;-60
2021/12/12 03:51:00;;;;;;;3.17;0.90;;;18.60;58.60;;;;;;6146322;22;92057;-60
2021/12/12 03:53:27;;;;;;;2.70;1.33;;;18.50;58.50;;;;;;6147205;22;92051;-61
2021/12/12 03:55:54;;;;;;;2.70;1.13;;;18.50;58.50;;;;;;6146543;22;93157;-61
2021/12/12 03:58:19;;;;;;;1.40;0.73;;;18.50;58.60;;;;;;6145012;22;95229;-60
2021/12/12 04:00:49;;;;;;;4.90;1.58;;;18.50;58.60;;;;;;6146181;22;94058;-60
2021/12/12 04:03:14;;;;;;;2.20;0.93;;;18.50;58.60;;;;;;6145513;22;92792;-61
2021/12/12 04:05:49;;;;;;;2.20;0.90;;;18.50;58.70;;;;;;6144949;22;95895;-60
2021/12/12 04:08:15;;;;;;;2.40;1.20;;;18.50;58.70;;;;;;6146416;22;92989;-61
2021/12/12 04:10:41;;;;;;;2.35;0.90;;;18.50;58.70;;;;;;6146920;22;92804;-59
2021/12/12 04:13:07;;;;;;;3.67;1.27;;;18.50;58.70;;;;;;6146819;22;92664;-61
2021/12/12 04:15:33;;;;;;;2.70;0.90;;;18.50;58.80;;;;;;6144387;22;92561;-61
2021/12/12 04:17:59;;;;;;;4.78;1.15;;;18.50;58.80;;;;;;6145491;22;92834;-61
2021/12/12 04:20:34;;;;;;;3.47;1.48;;;18.50;58.80;;;;;;6146143;22;92731;-61
2021/12/12 04:22:59;;;;;;;2.10;1.10;;;18.40;58.80;;;;;;6146172;22;92835;-60
2021/12/12 04:25:25;;;;;;;3.65;1.27;;;18.50;58.80;;;;;;6143689;22;95606;-60
2021/12/12 04:27:52;;;;;;;4.30;1.20;;;18.50;58.90;;;;;;6145474;22;94110;-61
2021/12/12 04:30:18;;;;;;;4.25;1.20;;;18.40;58.80;;;;;;6145206;22;92609;-61
2021/12/12 04:32:46;;;;;;;2.20;1.00;;;18.40;58.90;;;;;;6145257;22;92652;-60
2021/12/12 04:35:20;;;;;;;2.58;1.02;;;18.40;58.90;;;;;;6144723;22;93143;-60
2021/12/12 04:37:47;;;;;;;1.60;0.88;;;18.40;58.90;;;;;;6143977;22;93245;-62
2021/12/12 04:40:17;;;;;;;3.47;1.00;;;18.40;58.90;;;;;;6146104;22;92271;-61
2021/12/12 04:42:44;;;;;;;3.92;0.95;;;18.40;58.90;;;;;;6147052;22;91844;-61
2021/12/12 04:45:44;;;;;;;3.35;1.20;;;18.40;58.90;;;;;;6145050;22;96007;-60
2021/12/12 04:51:07;;;;;;;2.78;1.00;;;18.40;58.90;;;;;;6145812;22;93840;-61
2021/12/12 04:53:41;;;;;;;2.83;1.27;;;18.40;58.90;;;;;;6145539;22;92113;-62
2021/12/12 04:56:30;;;;;;;2.25;0.88;;;18.40;58.90;;;;;;6146359;22;93779;-60
2021/12/12 04:59:08;;;;;;;4.15;0.70;;;18.40;58.90;;;;;;6146060;22;92380;-62
2021/12/12 05:01:41;;;;;;;1.42;0.95;;;18.40;59.00;;;;;;6145939;22;93046;-60
2021/12/12 05:04:28;;;;;;;2.60;0.80;;;18.40;59.50;;;;;;6144644;22;92162;-61
2021/12/12 05:07:12;;;;;;;3.40;0.95;;;18.40;59.00;;;;;;6146321;22;93720;-60
2021/12/12 05:10:22;;;;;;;2.70;1.00;;;18.40;59.00;;;;;;6145719;22;95767;-60
2021/12/12 05:13:17;;;;;;;2.15;0.80;;;18.30;59.00;;;;;;6111024;22;92312;-61
2021/12/12 05:15:58;;;;;;;1.55;1.00;;;18.30;59.00;;;;;;6145292;22;92477;-60
2021/12/12 05:18:29;;;;;;;4.70;0.98;;;18.40;59.00;;;;;;6144787;22;93971;-61
2021/12/12 05:21:16;;;;;;;5.57;1.45;;;18.30;59.00;;;;;;6145717;22;93116;-59
2021/12/12 05:23:48;;;;;;;3.25;0.85;;;18.30;59.00;;;;;;6144734;22;92227;-61
2021/12/12 05:26:18;;;;;;;2.35;1.10;;;18.30;59.00;;;;;;6144912;22;92145;-61
2021/12/12 05:28:59;;;;;;;3.10;1.08;;;18.30;59.00;;;;;;6145642;22;93196;-62
2021/12/12 05:31:26;;;;;;;3.72;1.00;;;18.30;59.00;;;;;;6144883;22;93146;-61
2021/12/12 05:33:54;;;;;;;1.70;0.60;;;18.30;59.00;;;;;;6145364;22;92649;-61
2021/12/12 05:36:21;;;;;;;1.63;0.90;;;18.30;59.00;;;;;;6144887;22;92350;-61
2021/12/12 05:38:48;;;;;;;2.13;0.77;;;18.30;59.00;;;;;;6144310;22;93115;-61
2021/12/12 05:41:19;;;;;;;2.22;0.93;;;18.30;59.00;;;;;;6144056;22;92763;-60
2021/12/12 05:43:52;;;;;;;3.38;0.95;;;18.30;59.00;;;;;;6143894;22;93275;-60
2021/12/12 05:46:19;;;;;;;2.42;0.90;;;18.30;59.00;;;;;;6146454;22;92830;-60
2021/12/12 05:48:46;;;;;;;2.13;0.85;;;18.30;59.00;;;;;;6146069;22;92407;-60
2021/12/12 05:51:14;;;;;;;2.28;1.02;;;18.30;59.10;;;;;;6145539;22;93738;-60
2021/12/12 05:53:39;;;;;;;3.20;0.93;;;18.30;59.10;;;;;;6145959;22;92498;-61
2021/12/12 05:56:06;;;;;;;2.50;0.80;;;18.20;59.00;;;;;;6146496;22;92797;-61
2021/12/12 05:58:33;;;;;;;1.92;0.90;;;18.20;59.00;;;;;;6144779;22;96945;-60
2021/12/12 06:01:07;;;;;;;1.70;0.73;;;18.30;59.10;;;;;;6145892;22;92810;-60
2021/12/12 06:03:37;;;;;;;1.88;1.00;;;18.30;59.10;;;;;;6145869;22;92414;-61
2021/12/12 06:06:11;;;;;;;1.80;0.90;;;18.30;59.10;;;;;;6146159;22;92915;-62
2021/12/12 06:08:40;;;;;;;1.83;0.63;;;18.30;59.10;;;;;;6144630;22;93806;-61
2021/12/12 06:11:06;;;;;;;2.33;0.80;;;18.30;59.10;;;;;;6143832;22;98420;-61
2021/12/12 06:13:34;;;;;;;2.88;0.90;;;18.20;59.00;;;;;;6145316;22;92005;-61
2021/12/12 06:16:01;;;;;;;2.25;0.90;;;18.20;59.00;;;;;;6145575;22;92766;-61
2021/12/12 06:18:29;;;;;;;4.20;1.10;;;18.20;59.00;;;;;;6145322;22;93704;-62
2021/12/12 06:20:56;;;;;;;1.48;0.73;;;18.20;59.10;;;;;;6144460;22;92645;-60
2021/12/12 06:23:22;;;;;;;2.05;0.80;;;18.20;59.10;;;;;;6144531;22;92651;-62
2021/12/12 06:25:50;;;;;;;3.28;1.08;;;18.20;59.10;;;;;;6145362;22;91498;-60
2021/12/12 06:28:20;;;;;;;2.17;0.90;;;18.20;59.10;;;;;;6145445;22;93255;-61
2021/12/12 06:30:46;;;;;;;2.08;0.82;;;18.20;59.10;;;;;;6145822;22;93151;-62
2021/12/12 06:33:12;;;;;;;3.72;0.80;;;18.20;59.10;;;;;;6145857;22;93407;-61
2021/12/12 06:35:38;;;;;;;2.85;0.85;;;18.20;59.10;;;;;;6145432;22;92132;-61
2021/12/12 06:38:06;;;;;;;1.95;0.60;;;18.20;59.10;;;;;;6144695;22;92767;-60
2021/12/12 06:40:33;;;;;;;1.63;0.70;;;18.20;59.10;;;;;;6145326;22;92482;-60
2021/12/12 06:43:01;;;;;;;1.33;0.70;;;18.20;59.10;;;;;;6144814;22;92892;-63
2021/12/12 06:45:27;;;;;;;3.80;0.93;;;18.20;59.10;;;;;;6145586;22;92869;-61
2021/12/12 06:47:54;;;;;;;1.65;0.80;;;18.20;59.10;;;;;;6144780;22;92564;-60
2021/12/12 06:50:21;;;;;;;5.72;0.90;;;18.20;59.20;;;;;;6145545;22;92220;-60
2021/12/12 06:52:48;;;;;;;2.08;0.75;;;18.20;59.20;;;;;;6145685;22;93031;-62
2021/12/12 06:55:14;;;;;;;2.15;0.80;;;18.20;59.20;;;;;;6145854;22;92685;-61
2021/12/12 06:57:41;;;;;;;2.58;1.08;;;18.20;59.20;;;;;;6146059;22;94097;-60
2021/12/12 07:00:15;;;;;;;4.25;0.75;;;18.20;59.30;;;;;;6146435;22;93621;-62
2021/12/12 07:02:43;;;;;;;1.38;0.77;;;18.20;59.20;;;;;;6145011;22;93047;-60
2021/12/12 07:05:14;;;;;;;1.80;1.00;;;18.10;59.10;;;;;;6145974;22;92614;-60
2021/12/12 07:07:40;;;;;;;2.72;0.63;;;18.10;59.10;;;;;;6144767;22;96620;-60
2021/12/12 07:10:08;;;;;;;3.03;0.70;;;18.10;59.10;;;;;;6146548;22;92935;-62
2021/12/12 07:12:35;;;;;;;2.38;0.70;;;18.10;59.20;;;;;;6147405;22;93064;-61
2021/12/12 07:15:02;;;;;;;2.05;0.95;;;18.10;59.20;;;;;;6146451;22;91673;-62
2021/12/12 07:17:28;;;;;;;1.40;0.80;;;18.10;59.20;;;;;;6144859;22;94944;-59
2021/12/12 07:19:54;;;;;;;2.35;0.88;;;18.10;59.50;;;;;;6145375;22;93077;-61
2021/12/12 07:22:21;;;;;;;2.03;0.73;;;18.10;59.70;;;;;;6146227;22;93573;-59
2021/12/12 07:24:48;;;;;;;2.90;0.90;;;18.10;59.60;;;;;;6146642;22;92161;-61
2021/12/12 07:27:15;;;;;;;4.55;0.95;;;18.20;59.70;;;;;;6145140;22;93436;-61
2021/12/12 07:29:41;;;;;;;2.63;0.70;;;18.30;59.60;;;;;;6145089;22;92705;-62
2021/12/12 07:32:08;;;;;;;2.40;1.15;;;18.30;59.50;;;;;;6146477;22;92632;-61
2021/12/12 07:34:35;;;;;;;2.78;0.90;;;18.40;59.50;;;;;;6146046;22;92695;-60
2021/12/12 07:37:05;;;;;;;1.85;0.80;;;18.50;59.30;;;;;;6146162;22;93842;-62
2021/12/12 07:39:32;;;;;;;2.08;0.82;;;18.60;59.20;;;;;;6145315;22;95649;-61
2021/12/12 07:42:00;;;;;;;3.33;0.68;;;18.70;59.00;;;;;;6145762;22;92131;-61
2021/12/12 07:44:29;;;;;;;6.13;0.65;;;18.80;58.80;;;;;;6146881;22;92792;-61
2021/12/12 07:46:58;;;;;;;1.45;0.77;;;18.90;58.60;;;;;;6145733;22;93290;-61
2021/12/12 07:49:28;;;;;;;3.17;1.17;;;19.00;58.40;;;;;;6145917;22;92885;-61
2021/12/12 07:51:55;;;;;;;2.95;0.50;;;19.10;58.30;;;;;;6146581;22;92469;-62
2021/12/12 07:54:21;;;;;;;3.80;0.55;;;19.30;58.10;;;;;;6146090;22;92569;-61
2021/12/12 07:56:48;;;;;;;1.15;0.60;;;19.30;58.00;;;;;;6146180;22;92107;-63
2021/12/12 07:59:17;;;;;;;1.58;0.70;;;19.30;57.70;;;;;;6146618;22;92524;-62
2021/12/12 08:01:46;;;;;;;3.05;0.90;;;19.40;57.20;;;;;;6145187;22;92566;-62
2021/12/12 08:04:14;;;;;;;1.67;0.40;;;19.50;56.60;;;;;;6145766;22;91418;-62
2021/12/12 08:06:41;;;;;;;3.15;0.82;;;19.60;56.00;;;;;;6144669;22;93197;-61
2021/12/12 08:09:08;;;;;;;1.52;0.50;;;19.60;55.50;;;;;;6145616;22;92588;-60
2021/12/12 08:11:35;;;;;;;3.03;0.65;;;19.70;55.00;;;;;;6144760;22;93558;-61
2021/12/12 08:14:04;;;;;;;1.70;0.50;;;19.70;54.50;;;;;;6145039;22;92541;-59
2021/12/12 08:16:30;;;;;;;2.88;0.95;;;19.70;54.20;;;;;;6145581;22;93172;-61
2021/12/12 08:18:57;;;;;;;3.50;1.00;;;19.80;54.30;;;;;;6145915;22;92753;-60
2021/12/12 08:21:24;;;;;;;2.00;0.63;;;19.80;54.20;;;;;;6146010;22;92776;-61
2021/12/12 08:23:52;;;;;;;3.15;0.60;;;19.90;54.20;;;;;;6146471;22;92994;-62
2021/12/12 08:26:18;;;;;;;11.25;0.73;;;19.90;54.00;;;;;;6145940;22;93281;-60
2021/12/12 08:28:45;;;;;;;8.45;0.98;;;19.90;53.80;;;;;;6146941;22;92331;-61
2021/12/12 08:31:12;;;;;;;4.25;0.90;;;19.90;53.60;;;;;;6146077;22;92277;-61
2021/12/12 08:33:39;;;;;;;6.85;1.50;;;19.90;53.40;;;;;;6146199;22;92994;-61
2021/12/12 08:36:05;;;;;;;5.00;1.50;;;19.90;53.30;;;;;;6144571;22;94462;-60
2021/12/12 08:38:31;;;;;;;20.52;2.65;;;19.90;53.30;;;;;;6143821;22;93359;-61
2021/12/12 08:41:00;;;;;;;7.82;1.85;;;19.90;53.80;;;;;;6136807;22;93673;-62
2021/12/12 08:43:29;;;;;;;7.80;1.63;;;19.90;53.50;;;;;;6144576;22;92526;-61
2021/12/12 08:46:03;;;;;;;5.85;1.30;;;19.90;53.50;;;;;;6144969;22;93108;-61
2021/12/12 08:48:31;;;;;;;5.05;1.00;;;19.90;53.40;;;;;;6144978;22;95425;-61
2021/12/12 08:51:01;;;;;;;6.07;1.42;;;19.90;53.40;;;;;;6144740;22;92747;-61
2021/12/12 08:53:28;;;;;;;9.05;1.35;;;19.90;53.40;;;;;;6091588;22;92013;-62
2021/12/12 08:55:56;;;;;;;4.82;1.30;;;19.90;53.40;;;;;;6145143;22;93540;-61
2021/12/12 08:58:26;;;;;;;5.72;1.13;;;19.90;53.40;;;;;;6145757;22;92515;-61
2021/12/12 09:00:54;;;;;;;8.10;1.58;;;19.90;53.30;;;;;;6144906;22;93415;-62
2021/12/12 09:03:36;;;;;;;4.63;1.20;;;19.90;53.20;;;;;;6144679;22;92445;-62
2021/12/12 09:06:03;;;;;;;6.03;1.30;;;20.00;53.20;;;;;;6144671;22;93856;-61
2021/12/12 09:08:39;;;;;;;7.78;1.48;;;20.00;53.00;;;;;;6143764;22;92427;-61
2021/12/12 09:11:20;;;;;;;2.70;0.80;;;20.00;52.80;;;;;;6145133;22;92542;-61
2021/12/12 09:14:14;;;;;;;2.13;0.80;;;20.10;52.70;;;;;;6144321;22;93560;-61
2021/12/12 09:16:42;;;;;;;4.85;0.80;;;20.10;52.40;;;;;;6146364;22;92987;-61
2021/12/12 09:19:15;;;;;;;5.25;1.40;;;20.10;52.20;;;;;;6146604;22;93062;-61
2021/12/12 09:21:51;;;;;;;3.50;0.97;;;20.10;52.10;;;;;;6146436;22;92022;-62
2021/12/12 09:24:45;;;;;;;2.75;0.70;;;20.10;52.00;;;;;;6145063;22;94675;-62
2021/12/12 09:27:13;;;;;;;;;;;20.20;51.90;;;;;;6145482;22;93690;-61
2021/12/12 09:29:52;;;;;;;3.65;0.95;;;20.10;51.80;;;;;;6147504;22;93386;-61
2021/12/12 09:32:26;;;;;;;3.78;0.80;;;20.20;51.80;;;;;;6145568;22;92854;-61
2021/12/12 09:35:20;;;;;;;2.25;0.70;;;20.10;51.60;;;;;;6145657;22;92915;-61
2021/12/12 09:37:52;;;;;;;;;;;20.10;51.70;;;;;;6145326;22;92815;-61
2021/12/12 09:40:36;;;;;;;3.60;0.63;;;20.10;51.70;;;;;;6146055;22;95141;-61
2021/12/12 09:43:29;;;;;;;2.92;0.68;;;20.10;52.10;;;;;;6145661;22;92238;-64
2021/12/12 09:46:28;;;;;;;2.20;0.65;;;20.10;52.20;;;;;;5069029;27;87260;-59
2021/12/12 09:52:30;;;;;;;4.20;1.20;;;20.10;53.50;;;;;;5067736;27;86090;-70
2021/12/12 09:55:09;;;;;;;1.52;0.50;;;20.20;53.60;;;;;;5066763;27;86633;-60
2021/12/12 09:57:41;;;;;;;2.58;0.73;;;20.20;53.80;;;;;;5066290;27;88781;-65
2021/12/12 10:00:10;;;;;;;1.33;0.50;;;20.20;53.80;;;;;;5067584;27;86204;-60
2021/12/12 10:02:51;;;;;;;1.73;0.47;;;20.20;53.80;;;;;;5067165;27;86452;-61
2021/12/12 10:05:44;;;;;;;2.70;0.52;;;20.30;53.90;;;;;;5051951;27;89550;-58
2021/12/12 10:08:23;;;;;;;1.55;0.65;;;20.30;54.30;;;;;;5063100;27;86261;-58
2021/12/12 10:11:01;;;;;;;3.00;0.80;;;20.40;54.60;;;;;;5066833;27;86060;-61
2021/12/12 10:13:33;;;;;;;2.05;0.82;;;20.40;53.90;;;;;;5066984;27;85897;-57
2021/12/12 10:16:05;;;;;;;2.90;0.75;;;20.40;53.40;;;;;;5067690;27;86813;-61
2021/12/12 10:18:52;;;;;;;4.47;0.80;;;20.40;53.10;;;;;;5066424;27;86747;-57
2021/12/12 10:21:40;;;;;;;2.22;0.50;;;20.30;53.80;;;;;;5066447;27;86273;-58
2021/12/12 10:24:24;;;;;;;5.55;1.02;;;20.30;53.80;;;;;;5065007;27;86510;-58
2021/12/12 10:27:19;;;;;;;1.65;0.40;;;20.30;54.10;;;;;;5067171;27;87499;-57
2021/12/12 10:29:53;;;;;;;1.75;0.70;;;20.30;54.50;;;;;;5046693;27;86506;-57
2021/12/12 10:32:25;;;;;;;4.07;0.70;;;20.30;54.50;;;;;;5065209;27;85909;-57
2021/12/12 10:34:59;;;;;;;4.97;0.82;;;20.40;54.80;;;;;;5066695;27;86447;-61
2021/12/12 10:37:31;;;;;;;1.75;0.60;;;20.40;54.90;;;;;;5066910;27;87057;-56
2021/12/12 10:40:00;;;;;;;2.47;0.40;;;20.40;55.00;;;;;;5067499;27;87562;-58
2021/12/12 10:42:37;;;;;;;4.13;0.90;;;20.40;55.20;;;;;;5055205;27;86820;-58
2021/12/12 10:45:10;;;;;;;1.85;0.73;;;20.40;55.80;;;;;;5063476;27;86215;-58
2021/12/12 10:47:48;;;;;;;1.85;0.50;;;20.40;55.60;;;;;;5066900;27;87055;-58
2021/12/12 10:50:28;;;;;;;1.63;0.77;;;20.40;54.70;;;;;;5066730;27;86636;-58
2021/12/12 10:53:19;;;;;;;1.75;0.65;;;20.30;54.30;;;;;;5052693;27;86544;-59
2021/12/12 10:55:54;;;;;;;0.98;0.40;;;20.30;54.10;;;;;;5053884;27;88095;-58
2021/12/12 10:58:33;;;;;;;1.85;0.65;;;20.30;54.00;;;;;;5053230;27;87107;-59
2021/12/12 11:01:31;;;;;;;2.70;0.60;;;20.30;53.80;;;;;;5053839;27;86723;-58
2021/12/12 11:04:03;;;;;;;1.63;0.70;;;20.30;53.70;;;;;;5051228;27;86506;-58
2021/12/12 11:06:37;;;;;;;2.17;0.45;;;20.30;53.60;;;;;;5053829;27;86807;-59
2021/12/12 11:09:21;;;;;;;0.98;0.50;;;20.20;53.60;;;;;;5043320;27;89960;-59
2021/12/12 11:12:01;;;;;;;1.33;0.55;;;20.20;53.40;;;;;;5053528;27;86144;-58
2021/12/12 11:14:33;;;;;;;2.15;0.88;;;20.20;53.40;;;;;;5053276;27;86858;-59
2021/12/12 11:17:09;;;;;;;1.08;0.50;;;20.10;53.40;;;;;;5054122;27;86974;-58
2021/12/12 11:19:52;;;;;;;1.52;0.50;;;20.10;53.30;;;;;;5051505;27;90447;-58
2021/12/12 11:22:46;;;;;;;1.88;0.60;;;20.10;53.30;;;;;;5054093;27;86389;-58
2021/12/12 11:25:41;;;;;;;2.97;0.60;;;20.10;53.40;;;;;;5053176;27;86788;-58
2021/12/12 11:28:13;;;;;;;1.65;0.60;;;20.00;53.30;;;;;;5052340;27;85958;-58
2021/12/12 11:30:46;;;;;;;1.25;0.50;;;20.00;53.30;;;;;;5053294;27;89590;-58
2021/12/12 11:33:15;;;;;;;2.30;0.57;;;20.00;53.30;;;;;;5052815;27;86695;-58
2021/12/12 11:35:44;;;;;;;1.90;0.60;;;20.00;53.30;;;;;;5053215;27;86180;-59
2021/12/12 11:38:46;;;;;;;1.65;0.57;;;20.00;53.20;;;;;;5052195;27;86146;-58
2021/12/12 11:41:26;;;;;;;1.02;0.60;;;20.00;53.20;;;;;;5050315;27;86333;-58
2021/12/12 11:44:03;;;;;;;3.60;0.63;;;20.00;53.20;;;;;;5051701;27;87100;-58
2021/12/12 11:46:35;;;;;;;0.77;0.50;;;20.00;53.20;;;;;;5053109;27;86244;-58
2021/12/12 11:49:20;;;;;;;2.08;0.60;;;20.00;53.10;;;;;;5053154;27;86409;-59
2021/12/12 11:51:54;;;;;;;1.38;0.73;;;20.00;53.10;;;;;;5053300;27;87935;-59
2021/12/12 11:54:29;;;;;;;;;;;20.00;53.10;;;;;;5053642;27;87945;-59
2021/12/12 11:57:04;;;;;;;3.00;0.60;;;20.10;53.20;;;;;;5054831;27;85709;-58
2021/12/12 12:00:16;;;;;;;1.90;0.60;;;20.00;53.10;;;;;;5053382;27;85859;-58
2021/12/12 12:03:24;;;;;;;1.38;0.57;;;20.00;53.10;;;;;;5049222;27;88136;-58
2021/12/12 12:06:24;;;;;;;0.98;0.50;;;20.10;53.20;;;;;;5053591;27;86082;-60
2021/12/12 12:09:25;;;;;;;1.33;0.60;;;20.10;53.20;;;;;;5052009;27;86351;-59
2021/12/12 12:12:12;;;;;;;1.38;0.65;;;20.10;53.10;;;;;;5053347;27;86016;-59
2021/12/12 12:15:06;;;;;;;1.50;0.50;;;20.10;53.10;;;;;;5053130;27;86220;-59
2021/12/12 12:18:03;;;;;;;1.67;0.67;;;20.10;53.10;;;;;;5052333;27;86708;-58
2021/12/12 12:20:57;;;;;;;4.72;1.02;;;20.10;53.10;;;;;;5053045;27;86478;-58
2021/12/12 12:26:52;;;;;;;3.45;0.85;;;20.10;53.30;;;;;;5051854;27;86736;-59
2021/12/12 12:29:27;;;;;;;6.20;0.90;;;20.10;53.40;;;;;;5051473;27;86586;-59
2021/12/12 12:32:05;;;;;;;6.30;1.23;;;20.10;53.50;;;;;;5052761;27;85830;-60
2021/12/12 12:35:08;;;;;;;3.50;0.98;;;20.10;53.60;;;;;;5053447;27;86108;-58
2021/12/12 12:38:11;;;;;;;2.25;0.77;;;20.10;53.60;;;;;;5051092;27;87448;-59
2021/12/12 12:41:14;;;;;;;6.07;1.05;;;20.20;53.70;;;;;;5052285;27;86626;-59
2021/12/12 12:44:07;;;;;;;2.35;0.80;;;20.20;53.60;;;;;;5051218;27;86533;-59
2021/12/12 12:47:30;;;;;;;3.30;0.93;;;20.30;53.60;;;;;;5052746;27;86573;-59
2021/12/12 12:50:07;;;;;;;2.55;0.98;;;20.40;53.60;;;;;;5051966;27;87140;-59
2021/12/12 12:52:46;;;;;;;3.90;0.90;;;20.40;53.50;;;;;;5052852;27;87608;-59
2021/12/12 12:55:31;;;;;;;3.58;1.02;;;20.40;53.50;;;;;;5052458;27;86667;-58
2021/12/12 12:58:21;;;;;;;3.03;1.23;;;20.40;53.50;;;;;;5044769;27;85848;-58
2021/12/12 13:00:49;;;;;;;4.85;1.45;;;20.40;53.60;;;;;;5052843;27;86822;-59
2021/12/12 13:03:47;;;;;;;3.58;1.08;;;20.40;53.70;;;;;;5052103;27;86474;-59
2021/12/12 13:06:58;;;;;;;1.88;0.90;;;20.40;53.70;;;;;;5052181;27;87317;-59
2021/12/12 13:09:42;;;;;;;2.45;1.13;;;20.40;53.70;;;;;;5052642;27;87114;-58
2021/12/12 13:12:26;;;;;;;3.67;1.02;;;20.40;53.80;;;;;;5052327;27;87398;-58
2021/12/12 13:15:13;;;;;;;3.42;0.90;;;20.40;53.80;;;;;;5052272;27;86354;-59
2021/12/12 13:17:53;;;;;;;3.67;1.25;;;20.40;53.90;;;;;;5051511;27;86127;-58
2021/12/12 13:20:50;;;;;;;4.05;1.20;;;20.40;54.00;;;;;;5052008;27;85648;-58
2021/12/12 13:23:40;;;;;;;4.22;1.45;;;20.40;54.00;;;;;;5067631;27;88277;-59
2021/12/12 13:26:11;;;;;;;3.78;1.20;;;20.30;54.00;;;;;;5051550;27;86309;-58
2021/12/12 13:29:06;;;;;;;3.28;1.30;;;20.30;54.10;;;;;;5051525;27;86568;-58
2021/12/12 13:31:39;;;;;;;6.00;1.30;;;20.30;54.10;;;;;;5052073;27;85640;-59
2021/12/12 13:34:26;;;;;;;2.88;1.25;;;20.30;54.10;;;;;;5051137;27;88360;-58
2021/12/12 13:37:13;;;;;;;4.43;1.23;;;20.30;54.20;;;;;;5051856;27;86397;-59
2021/12/12 13:40:03;;;;;;;4.25;1.42;;;20.30;54.30;;;;;;5051489;27;85805;-59
2021/12/12 13:42:41;;;;;;;3.22;0.90;;;20.30;54.40;;;;;;5052529;27;86620;-58
2021/12/12 13:45:29;;;;;;;3.15;1.30;;;20.30;54.50;;;;;;5051504;27;86310;-58
2021/12/12 13:48:15;;;;;;;3.25;1.00;;;20.20;54.50;;;;;;5050444;27;88866;-59
2021/12/12 13:50:59;;;;;;;2.17;0.75;;;20.20;54.50;;;;;;5051687;27;85868;-58
2021/12/12 13:53:36;;;;;;;3.05;1.25;;;20.20;54.60;;;;;;5051387;27;86538;-58